首页
METAR-TAF:

METAR-TAF

机场 :

可可比奇, 佛罗里达州, 美国

纬度: 28-14N, 经度: 080-36W, 海拔: 3米

当前天气观测

该预报发布于20分钟前的11:18 UTC
风速8节,风向南转南东
温度 24°C
湿度 94%
气压 1016 hPa
能見度: 3.6公里
多云层高于1300英尺
小雨, 轻雾

METAR: KCOF 191118Z AUTO 16008KT 2 1/4SM -RA BR BKN013 24/23 A2999 RMK AO2 VIS 1V2 1/4 DZB02E05RAB05 CIG 007 RWY21 SLP160 $

时间: 07:38 (11:38 UTC)

预报

该预报发布于7小时和48分钟前的03:50 UTC
预报有效从19日的 03点(UTC)到 20日的 08点(UTC)
风速15节,风向,有时为20节阵风
能见度10公里或以上
散云层高于2000英尺
多云层高于6000英尺
附近有阵雨
短暂存在
从 19日的 04点(UTC)到 19日的 07点(UTC)
风速15节,风向,有时为25节阵风
能見度: 8000
多云层高于2000英尺
阴天层高于6000英尺
小阵雨
成为
从 19日的 11点(UTC)到 19日的 12点(UTC)
风速12节,风向,有时为18节阵风
能见度10公里或以上
散云层高于3000英尺
多云层高于5000英尺
成为
从 19日的 20点(UTC)到 19日的 21点(UTC)
风速15节,风向,有时为20节阵风
能见度10公里或以上
散云层高于2000英尺
多云层高于5000英尺
附近有阵雨
短暂存在
从 19日的 20点(UTC)到 20日的 02点(UTC)
风速15节,风向,有时为30节阵风
能見度: 1916
多云层高于2000英尺
阴天层高于5000英尺
小阵雨,

TAF: KCOF 190350Z 1903/2008 09015G20KT 9999 VCSH SCT020 BKN060 QNH2997INS TEMPO 1904/1907 09015G25KT 8000 -SHRA BKN020 OVC060 BECMG 1911/1912 08012G18KT 9999 NSW SCT030 BKN050 QNH3002INS BECMG 1920/1921 08015G20KT 9999 VCSH SCT020 BKN050 QNH3001INS TEMPO 1920/2002 08015G30KT 8000 -SHRA BKN020 OVC050 TX30/1918Z TN26/1911Z LAST NO AMDS AFT 1904 NEXT 1916

超过4000个机场的气象观测和天气预报(METAR&TAF报告)。

可查询的气象台以黄色和红色小点在地图上表示。

将鼠标移到小点上方,可查看气象台名称。

然后点击查看天气观测和预报。

如需切换地图:点击带黑十字的绿色按钮放大地图;点击带横线的绿色按钮缩小地图;或者点击绿色箭头查看邻近地区的地图。


METAR-TAF: